Terminal Aerodrome Forecast
Issued by NWS

Home | Current Version | Previous Version | Text Only | Print | Product List | Glossary On
Versions: 1 2 3 4 5 6 7 8 9 10 11 12 13 14 15 16 17 18 19 20 21 22
000
FTAK31 PANC 041724
TAFAGK
TAF
PAGK 041724Z 0418/0518 17008KT P6SM SCT120 BKN200
     FM042200 17012G20KT P6SM SCT060 BKN120
     FM050600 15007KT P6SM SCT050 BKN080=

USA.gov is the U.S. government's official web portal to all federal, state and local government web resources and services.